sensor_id;sensor_type;location;lat;lon;timestamp;pressure;altitude;pressure_sealevel;temperature;humidity
34081;BME280;20358;50.272;19.026;2023-08-06T00:02:02;96992.28;;;22.87;72.93
34081;BME280;20358;50.272;19.026;2023-08-06T00:05:09;96958.66;;;22.85;72.92
34081;BME280;20358;50.272;19.026;2023-08-06T00:08:20;96966.75;;;22.77;72.99
34081;BME280;20358;50.272;19.026;2023-08-06T00:11:28;96971.91;;;22.79;73.55
34081;BME280;20358;50.272;19.026;2023-08-06T00:14:35;96937.53;;;22.84;72.95
34081;BME280;20358;50.272;19.026;2023-08-06T00:17:44;96922.19;;;22.86;73.09
34081;BME280;20358;50.272;19.026;2023-08-06T00:20:52;96898.81;;;22.88;73.17
34081;BME280;20358;50.272;19.026;2023-08-06T00:23:59;96887.72;;;22.84;72.92
34081;BME280;20358;50.272;19.026;2023-08-06T00:27:05;96875.78;;;22.80;73.31
34081;BME280;20358;50.272;19.026;2023-08-06T00:30:12;96849.97;;;22.81;73.38
34081;BME280;20358;50.272;19.026;2023-08-06T00:33:21;96824.88;;;22.75;73.74
34081;BME280;20358;50.272;19.026;2023-08-06T00:36:34;96783.41;;;22.66;73.69
34081;BME280;20358;50.272;19.026;2023-08-06T00:39:40;96749.25;;;22.55;74.12
34081;BME280;20358;50.272;19.026;2023-08-06T00:42:49;96751.66;;;22.50;74.76
34081;BME280;20358;50.272;19.026;2023-08-06T00:45:56;96751.75;;;22.42;74.94
34081;BME280;20358;50.272;19.026;2023-08-06T00:49:06;96822.28;;;22.46;74.86
34081;BME280;20358;50.272;19.026;2023-08-06T00:52:12;96871.38;;;22.58;74.70
34081;BME280;20358;50.272;19.026;2023-08-06T00:55:20;96767.06;;;22.69;74.12
34081;BME280;20358;50.272;19.026;2023-08-06T00:58:27;96763.56;;;22.69;73.68
34081;BME280;20358;50.272;19.026;2023-08-06T01:01:34;96765.78;;;22.65;73.98
34081;BME280;20358;50.272;19.026;2023-08-06T01:04:44;96762.09;;;22.66;74.07
34081;BME280;20358;50.272;19.026;2023-08-06T01:08:06;96762.09;;;22.66;73.92
34081;BME280;20358;50.272;19.026;2023-08-06T01:11:29;96770.72;;;22.68;73.70
34081;BME280;20358;50.272;19.026;2023-08-06T01:14:50;96775.69;;;22.71;73.90
34081;BME280;20358;50.272;19.026;2023-08-06T01:18:04;96777.84;;;22.82;73.62
34081;BME280;20358;50.272;19.026;2023-08-06T01:21:16;96778.72;;;22.90;72.99
34081;BME280;20358;50.272;19.026;2023-08-06T01:24:22;96776.50;;;22.93;72.91
34081;BME280;20358;50.272;19.026;2023-08-06T01:27:36;96753.59;;;22.99;72.85
34081;BME280;20358;50.272;19.026;2023-08-06T01:30:51;96739.75;;;23.10;72.50
34081;BME280;20358;50.272;19.026;2023-08-06T01:34:03;96725.66;;;23.16;71.94
34081;BME280;20358;50.272;19.026;2023-08-06T01:37:17;96707.25;;;23.21;71.68
34081;BME280;20358;50.272;19.026;2023-08-06T01:40:24;96693.13;;;23.27;71.26
34081;BME280;20358;50.272;19.026;2023-08-06T01:43:32;96687.16;;;23.25;71.46
34081;BME280;20358;50.272;19.026;2023-08-06T01:46:40;96675.72;;;23.31;70.95
34081;BME280;20358;50.272;19.026;2023-08-06T01:49:45;96686.00;;;23.34;70.96
34081;BME280;20358;50.272;19.026;2023-08-06T01:52:57;96703.91;;;23.40;70.94
34081;BME280;20358;50.272;19.026;2023-08-06T01:56:03;96700.69;;;23.51;70.57
34081;BME280;20358;50.272;19.026;2023-08-06T01:59:10;96722.47;;;23.55;70.14
34081;BME280;20358;50.272;19.026;2023-08-06T02:02:17;96716.56;;;23.59;70.06
34081;BME280;20358;50.272;19.026;2023-08-06T02:05:25;96715.78;;;23.65;69.85
34081;BME280;20358;50.272;19.026;2023-08-06T02:08:34;96721.97;;;23.72;69.51
34081;BME280;20358;50.272;19.026;2023-08-06T02:11:43;96708.03;;;23.77;69.28
34081;BME280;20358;50.272;19.026;2023-08-06T02:14:48;96712.16;;;23.79;69.19
34081;BME280;20358;50.272;19.026;2023-08-06T02:17:55;96702.28;;;23.73;68.77
34081;BME280;20358;50.272;19.026;2023-08-06T02:21:02;96703.13;;;23.80;68.67
34081;BME280;20358;50.272;19.026;2023-08-06T02:24:11;96692.84;;;23.77;68.88
34081;BME280;20358;50.272;19.026;2023-08-06T02:27:17;96700.22;;;23.75;68.94
34081;BME280;20358;50.272;19.026;2023-08-06T02:30:26;96698.56;;;23.74;68.98
34081;BME280;20358;50.272;19.026;2023-08-06T02:33:34;96700.03;;;23.77;68.77
34081;BME280;20358;50.272;19.026;2023-08-06T02:36:40;96710.53;;;23.78;68.85
34081;BME280;20358;50.272;19.026;2023-08-06T02:39:49;96704.75;;;23.81;68.51
34081;BME280;20358;50.272;19.026;2023-08-06T02:42:56;96692.47;;;23.80;68.75
34081;BME280;20358;50.272;19.026;2023-08-06T02:46:02;96688.75;;;23.81;68.70
34081;BME280;20358;50.272;19.026;2023-08-06T02:49:11;96681.38;;;23.83;68.64
34081;BME280;20358;50.272;19.026;2023-08-06T02:52:17;96674.41;;;23.82;68.42
34081;BME280;20358;50.272;19.026;2023-08-06T02:55:28;96672.75;;;23.81;68.46
34081;BME280;20358;50.272;19.026;2023-08-06T02:58:33;96679.72;;;23.82;68.61
34081;BME280;20358;50.272;19.026;2023-08-06T03:01:55;96672.34;;;23.84;68.67
34081;BME280;20358;50.272;19.026;2023-08-06T03:05:11;96659.66;;;23.86;68.51
34081;BME280;20358;50.272;19.026;2023-08-06T03:08:21;96653.03;;;23.82;68.47
34081;BME280;20358;50.272;19.026;2023-08-06T03:11:33;96662.13;;;23.94;68.38
34081;BME280;20358;50.272;19.026;2023-08-06T03:14:49;96667.69;;;23.99;68.25
34081;BME280;20358;50.272;19.026;2023-08-06T03:17:56;96659.50;;;24.01;68.05
34081;BME280;20358;50.272;19.026;2023-08-06T03:21:03;96650.25;;;24.03;67.92
34081;BME280;20358;50.272;19.026;2023-08-06T03:24:09;96651.91;;;24.04;68.05
34081;BME280;20358;50.272;19.026;2023-08-06T03:27:20;96641.41;;;24.03;67.93
34081;BME280;20358;50.272;19.026;2023-08-06T03:30:26;96645.31;;;24.00;68.23
34081;BME280;20358;50.272;19.026;2023-08-06T03:33:33;96643.66;;;23.99;68.21
34081;BME280;20358;50.272;19.026;2023-08-06T03:36:46;96650.88;;;23.99;68.66
34081;BME280;20358;50.272;19.026;2023-08-06T03:39:52;96638.31;;;23.99;68.48
34081;BME280;20358;50.272;19.026;2023-08-06T03:43:01;96631.75;;;23.95;68.76
34081;BME280;20358;50.272;19.026;2023-08-06T03:46:08;96619.63;;;23.93;68.86
34081;BME280;20358;50.272;19.026;2023-08-06T03:49:16;96610.38;;;23.89;68.63
34081;BME280;20358;50.272;19.026;2023-08-06T03:52:23;96611.59;;;23.86;69.00
34081;BME280;20358;50.272;19.026;2023-08-06T03:55:29;96606.28;;;23.86;69.02
34081;BME280;20358;50.272;19.026;2023-08-06T03:58:40;96608.50;;;23.83;69.27
34081;BME280;20358;50.272;19.026;2023-08-06T04:01:47;96609.13;;;23.85;69.21
34081;BME280;20358;50.272;19.026;2023-08-06T04:04:55;96614.91;;;23.88;69.23
34081;BME280;20358;50.272;19.026;2023-08-06T04:08:01;96616.97;;;23.93;69.31
34081;BME280;20358;50.272;19.026;2023-08-06T04:11:10;96615.72;;;23.95;69.18
34081;BME280;20358;50.272;19.026;2023-08-06T04:14:19;96606.72;;;23.96;69.11
34081;BME280;20358;50.272;19.026;2023-08-06T04:17:26;96611.63;;;23.99;69.01
34081;BME280;20358;50.272;19.026;2023-08-06T04:20:33;96610.22;;;24.03;68.96
34081;BME280;20358;50.272;19.026;2023-08-06T04:23:40;96600.63;;;24.09;68.43
34081;BME280;20358;50.272;19.026;2023-08-06T04:26:46;96615.41;;;24.12;68.24
34081;BME280;20358;50.272;19.026;2023-08-06T04:29:55;96621.13;;;24.09;68.48
34081;BME280;20358;50.272;19.026;2023-08-06T04:33:02;96615.81;;;24.09;68.63
34081;BME280;20358;50.272;19.026;2023-08-06T04:36:11;96594.03;;;24.12;68.55
34081;BME280;20358;50.272;19.026;2023-08-06T04:39:17;96594.03;;;24.12;68.37
34081;BME280;20358;50.272;19.026;2023-08-06T04:42:24;96589.31;;;24.14;68.14
34081;BME280;20358;50.272;19.026;2023-08-06T04:45:33;96573.72;;;24.17;68.47
34081;BME280;20358;50.272;19.026;2023-08-06T04:48:39;96573.50;;;24.19;68.34
34081;BME280;20358;50.272;19.026;2023-08-06T04:51:45;96578.84;;;24.19;68.21
34081;BME280;20358;50.272;19.026;2023-08-06T04:54:55;96571.84;;;24.18;68.16
34081;BME280;20358;50.272;19.026;2023-08-06T04:58:01;96573.91;;;24.16;68.42
34081;BME280;20358;50.272;19.026;2023-08-06T05:01:11;96571.84;;;24.18;68.37
34081;BME280;20358;50.272;19.026;2023-08-06T05:04:16;96565.50;;;24.19;68.17
34081;BME280;20358;50.272;19.026;2023-08-06T05:07:23;96567.75;;;24.22;67.99
34081;BME280;20358;50.272;19.026;2023-08-06T05:10:29;96558.09;;;24.21;68.12
34081;BME280;20358;50.272;19.026;2023-08-06T05:13:42;96560.16;;;24.19;67.85
34081;BME280;20358;50.272;19.026;2023-08-06T05:16:51;96558.94;;;24.15;68.13
34081;BME280;20358;50.272;19.026;2023-08-06T05:19:58;96545.13;;;24.04;68.29
34081;BME280;20358;50.272;19.026;2023-08-06T05:23:10;96543.03;;;24.00;68.73
34081;BME280;20358;50.272;19.026;2023-08-06T05:26:17;96537.72;;;23.93;68.72
34081;BME280;20358;50.272;19.026;2023-08-06T05:29:24;96539.72;;;23.78;69.57
34081;BME280;20358;50.272;19.026;2023-08-06T05:32:34;96527.72;;;23.48;70.28
34081;BME280;20358;50.272;19.026;2023-08-06T05:35:41;96537.06;;;23.31;70.99
34081;BME280;20358;50.272;19.026;2023-08-06T05:38:48;96514.00;;;23.10;71.58
34081;BME280;20358;50.272;19.026;2023-08-06T05:41:55;96528.31;;;23.03;72.07
34081;BME280;20358;50.272;19.026;2023-08-06T05:45:02;96523.31;;;22.93;72.33
34081;BME280;20358;50.272;19.026;2023-08-06T05:48:11;96520.84;;;22.85;72.45
34081;BME280;20358;50.272;19.026;2023-08-06T05:51:18;96509.88;;;22.67;71.61
34081;BME280;20358;50.272;19.026;2023-08-06T05:54:23;96512.41;;;22.54;71.52
34081;BME280;20358;50.272;19.026;2023-08-06T05:57:30;96495.06;;;22.37;71.73
34081;BME280;20358;50.272;19.026;2023-08-06T06:00:36;96492.94;;;22.26;71.78
34081;BME280;20358;50.272;19.026;2023-08-06T06:03:46;96501.38;;;22.08;71.63
34081;BME280;20358;50.272;19.026;2023-08-06T06:06:51;96511.91;;;21.95;71.55
34081;BME280;20358;50.272;19.026;2023-08-06T06:09:58;96492.88;;;21.55;72.48
34081;BME280;20358;50.272;19.026;2023-08-06T06:13:07;96510.56;;;21.48;73.18
34081;BME280;20358;50.272;19.026;2023-08-06T06:16:13;96498.09;;;21.13;73.63
34081;BME280;20358;50.272;19.026;2023-08-06T06:19:22;96477.78;;;20.76;74.47
34081;BME280;20358;50.272;19.026;2023-08-06T06:22:31;96483.00;;;20.70;75.02
34081;BME280;20358;50.272;19.026;2023-08-06T06:25:42;96489.13;;;20.70;74.90
34081;BME280;20358;50.272;19.026;2023-08-06T06:28:49;96472.09;;;20.50;74.84
34081;BME280;20358;50.272;19.026;2023-08-06T06:31:55;96460.84;;;20.33;75.98
34081;BME280;20358;50.272;19.026;2023-08-06T06:35:06;96466.97;;;20.11;76.33
34081;BME280;20358;50.272;19.026;2023-08-06T06:38:14;96477.91;;;19.94;76.95
34081;BME280;20358;50.272;19.026;2023-08-06T06:41:21;96454.38;;;19.76;77.92
34081;BME280;20358;50.272;19.026;2023-08-06T06:44:40;96431.47;;;19.60;78.98
34081;BME280;20358;50.272;19.026;2023-08-06T06:47:48;96432.28;;;19.61;79.65
34081;BME280;20358;50.272;19.026;2023-08-06T06:50:58;96449.47;;;19.65;78.64
34081;BME280;20358;50.272;19.026;2023-08-06T06:54:07;96429.84;;;19.29;78.56
34081;BME280;20358;50.272;19.026;2023-08-06T06:57:16;96425.19;;;19.31;79.60
34081;BME280;20358;50.272;19.026;2023-08-06T07:00:24;96411.09;;;19.07;80.11
34081;BME280;20358;50.272;19.026;2023-08-06T07:03:31;96407.25;;;18.87;81.37
34081;BME280;20358;50.272;19.026;2023-08-06T07:06:40;96403.13;;;18.85;82.18
34081;BME280;20358;50.272;19.026;2023-08-06T07:09:46;96413.72;;;18.85;82.39
34081;BME280;20358;50.272;19.026;2023-08-06T07:12:54;96431.75;;;18.81;81.91
34081;BME280;20358;50.272;19.026;2023-08-06T07:16:00;96435.50;;;18.95;81.73
34081;BME280;20358;50.272;19.026;2023-08-06T07:19:09;96437.31;;;18.94;81.64
34081;BME280;20358;50.272;19.026;2023-08-06T07:22:22;96467.63;;;18.92;80.65
34081;BME280;20358;50.272;19.026;2023-08-06T07:25:34;96494.84;;;19.08;82.15
34081;BME280;20358;50.272;19.026;2023-08-06T07:28:41;96511.06;;;19.13;80.93
34081;BME280;20358;50.272;19.026;2023-08-06T07:31:48;96499.09;;;19.17;82.05
34081;BME280;20358;50.272;19.026;2023-08-06T07:34:55;96490.59;;;18.99;81.85
34081;BME280;20358;50.272;19.026;2023-08-06T07:38:06;96469.84;;;18.80;81.51
34081;BME280;20358;50.272;19.026;2023-08-06T07:41:14;96482.78;;;18.67;81.46
34081;BME280;20358;50.272;19.026;2023-08-06T07:44:25;96503.66;;;18.62;81.21
34081;BME280;20358;50.272;19.026;2023-08-06T07:47:30;96497.19;;;18.65;81.51
34081;BME280;20358;50.272;19.026;2023-08-06T07:50:37;96474.53;;;18.62;81.02
34081;BME280;20358;50.272;19.026;2023-08-06T07:53:45;96471.25;;;18.36;80.69
34081;BME280;20358;50.272;19.026;2023-08-06T07:56:53;96505.31;;;18.47;82.06
34081;BME280;20358;50.272;19.026;2023-08-06T07:59:59;96518.56;;;18.39;81.20
34081;BME280;20358;50.272;19.026;2023-08-06T08:03:15;96507.97;;;18.39;82.19
34081;BME280;20358;50.272;19.026;2023-08-06T08:06:22;96504.47;;;18.46;81.60
34081;BME280;20358;50.272;19.026;2023-08-06T08:09:31;96483.81;;;18.50;81.53
34081;BME280;20358;50.272;19.026;2023-08-06T08:12:40;96470.09;;;18.38;81.46
34081;BME280;20358;50.272;19.026;2023-08-06T08:15:57;96487.13;;;18.44;80.84
34081;BME280;20358;50.272;19.026;2023-08-06T08:19:04;96476.56;;;18.36;80.76
34081;BME280;20358;50.272;19.026;2023-08-06T08:22:10;96486.63;;;18.32;81.39
34081;BME280;20358;50.272;19.026;2023-08-06T08:25:21;96479.72;;;18.15;81.23
34081;BME280;20358;50.272;19.026;2023-08-06T08:28:28;96489.16;;;18.18;81.19
34081;BME280;20358;50.272;19.026;2023-08-06T08:31:39;96468.81;;;18.18;81.59
34081;BME280;20358;50.272;19.026;2023-08-06T08:34:46;96428.03;;;18.05;81.33
34081;BME280;20358;50.272;19.026;2023-08-06T08:38:01;96475.09;;;18.25;80.42
34081;BME280;20358;50.272;19.026;2023-08-06T08:41:11;96462.69;;;18.34;81.08
34081;BME280;20358;50.272;19.026;2023-08-06T08:44:17;96484.81;;;18.41;79.86
34081;BME280;20358;50.272;19.026;2023-08-06T08:47:26;96501.69;;;18.48;79.83
34081;BME280;20358;50.272;19.026;2023-08-06T08:50:35;96491.59;;;18.51;80.17
34081;BME280;20358;50.272;19.026;2023-08-06T08:53:44;96483.47;;;18.45;78.54
34081;BME280;20358;50.272;19.026;2023-08-06T08:57:02;96480.19;;;18.35;78.62
34081;BME280;20358;50.272;19.026;2023-08-06T09:00:10;96484.50;;;18.36;78.43
34081;BME280;20358;50.272;19.026;2023-08-06T09:03:17;96479.41;;;18.18;78.19
34081;BME280;20358;50.272;19.026;2023-08-06T09:06:37;96475.59;;;18.21;79.59
34081;BME280;20358;50.272;19.026;2023-08-06T09:09:49;96473.28;;;18.26;79.42
34081;BME280;20358;50.272;19.026;2023-08-06T09:13:01;96485.16;;;18.30;79.06
34081;BME280;20358;50.272;19.026;2023-08-06T09:16:06;96480.19;;;18.35;78.53
34081;BME280;20358;50.272;19.026;2023-08-06T09:19:14;96472.25;;;18.27;78.03
34081;BME280;20358;50.272;19.026;2023-08-06T09:22:21;96462.19;;;18.30;78.86
34081;BME280;20358;50.272;19.026;2023-08-06T09:25:38;96467.28;;;18.32;78.64
34081;BME280;20358;50.272;19.026;2023-08-06T09:28:47;96455.06;;;18.39;78.16
34081;BME280;20358;50.272;19.026;2023-08-06T09:31:55;96439.34;;;18.29;77.73
34081;BME280;20358;50.272;19.026;2023-08-06T09:35:01;96436.59;;;18.15;77.80
34081;BME280;20358;50.272;19.026;2023-08-06T09:38:10;96427.00;;;18.14;78.50
34081;BME280;20358;50.272;19.026;2023-08-06T09:41:26;96440.41;;;18.12;78.27
34081;BME280;20358;50.272;19.026;2023-08-06T09:44:36;96451.97;;;18.11;78.39
34081;BME280;20358;50.272;19.026;2023-08-06T09:47:46;96466.97;;;18.27;79.04
34081;BME280;20358;50.272;19.026;2023-08-06T09:50:55;96459.34;;;18.32;78.58
34081;BME280;20358;50.272;19.026;2023-08-06T09:54:04;96468.78;;;18.26;77.76
34081;BME280;20358;50.272;19.026;2023-08-06T09:57:31;96447.81;;;18.25;78.09
34081;BME280;20358;50.272;19.026;2023-08-06T10:00:40;96469.63;;;18.27;77.07
34081;BME280;20358;50.272;19.026;2023-08-06T10:03:47;96473.94;;;18.20;76.95
34081;BME280;20358;50.272;19.026;2023-08-06T10:06:58;96473.59;;;18.31;77.49
34081;BME280;20358;50.272;19.026;2023-08-06T10:10:07;96490.56;;;18.44;77.47
34081;BME280;20358;50.272;19.026;2023-08-06T10:13:15;96496.69;;;18.45;76.32
34081;BME280;20358;50.272;19.026;2023-08-06T10:16:29;96493.41;;;18.43;76.70
34081;BME280;20358;50.272;19.026;2023-08-06T10:19:36;96484.63;;;18.34;76.18
34081;BME280;20358;50.272;19.026;2023-08-06T10:22:45;96491.78;;;18.26;77.13
34081;BME280;20358;50.272;19.026;2023-08-06T10:26:10;96488.50;;;18.08;77.49
34081;BME280;20358;50.272;19.026;2023-08-06T10:29:37;96496.91;;;18.19;77.67
34081;BME280;20358;50.272;19.026;2023-08-06T10:32:53;96508.31;;;18.36;78.60
34081;BME280;20358;50.272;19.026;2023-08-06T10:36:16;96489.63;;;18.29;77.70
34081;BME280;20358;50.272;19.026;2023-08-06T10:39:23;96522.84;;;18.48;77.55
34081;BME280;20358;50.272;19.026;2023-08-06T10:42:36;96514.72;;;18.49;77.57
34081;BME280;20358;50.272;19.026;2023-08-06T10:45:51;96478.91;;;18.23;77.38
34081;BME280;20358;50.272;19.026;2023-08-06T10:49:00;96508.31;;;18.36;77.55
34081;BME280;20358;50.272;19.026;2023-08-06T10:52:09;96512.91;;;18.42;77.59
34081;BME280;20358;50.272;19.026;2023-08-06T10:55:28;96505.47;;;18.45;77.51
34081;BME280;20358;50.272;19.026;2023-08-06T10:58:38;96498.38;;;18.38;77.73
34081;BME280;20358;50.272;19.026;2023-08-06T11:01:49;96505.66;;;18.28;77.49
34081;BME280;20358;50.272;19.026;2023-08-06T11:05:04;96532.75;;;18.46;77.49
34081;BME280;20358;50.272;19.026;2023-08-06T11:08:12;96533.59;;;18.38;77.54
34081;BME280;20358;50.272;19.026;2023-08-06T11:11:30;96537.38;;;18.44;77.29
34081;BME280;20358;50.272;19.026;2023-08-06T11:14:38;96543.03;;;18.57;78.15
34081;BME280;20358;50.272;19.026;2023-08-06T11:17:45;96535.03;;;18.65;77.98
34081;BME280;20358;50.272;19.026;2023-08-06T11:21:01;96534.25;;;18.65;75.84
34081;BME280;20358;50.272;19.026;2023-08-06T11:24:09;96536.19;;;18.63;76.36
34081;BME280;20358;50.272;19.026;2023-08-06T11:27:17;96538.72;;;18.48;76.39
34081;BME280;20358;50.272;19.026;2023-08-06T11:30:23;96525.66;;;18.30;76.62
34081;BME280;20358;50.272;19.026;2023-08-06T11:33:30;96542.03;;;18.26;77.08
34081;BME280;20358;50.272;19.026;2023-08-06T11:36:41;96536.75;;;18.26;78.10
34081;BME280;20358;50.272;19.026;2023-08-06T11:39:48;96531.47;;;18.34;77.64
34081;BME280;20358;50.272;19.026;2023-08-06T11:42:56;96537.06;;;18.31;77.83
34081;BME280;20358;50.272;19.026;2023-08-06T11:46:04;96534.75;;;18.36;78.19
34081;BME280;20358;50.272;19.026;2023-08-06T11:49:10;96551.59;;;18.35;77.56
34081;BME280;20358;50.272;19.026;2023-08-06T11:52:23;96542.69;;;18.28;77.93
34081;BME280;20358;50.272;19.026;2023-08-06T11:55:31;96532.94;;;18.20;77.90
34081;BME280;20358;50.272;19.026;2023-08-06T11:58:40;96527.16;;;18.25;77.78
34081;BME280;20358;50.272;19.026;2023-08-06T12:01:47;96537.72;;;18.41;77.81
34081;BME280;20358;50.272;19.026;2023-08-06T12:05:02;96547.16;;;18.43;77.76
34081;BME280;20358;50.272;19.026;2023-08-06T12:08:12;96553.94;;;18.30;77.76
34081;BME280;20358;50.272;19.026;2023-08-06T12:11:21;96561.72;;;18.23;78.01
34081;BME280;20358;50.272;19.026;2023-08-06T12:14:29;96571.47;;;18.39;78.27
34081;BME280;20358;50.272;19.026;2023-08-06T12:17:38;96565.19;;;18.48;77.94
34081;BME280;20358;50.272;19.026;2023-08-06T12:20:44;96566.50;;;18.20;77.66
34081;BME280;20358;50.272;19.026;2023-08-06T12:23:55;96570.13;;;18.19;77.65
34081;BME280;20358;50.272;19.026;2023-08-06T12:27:04;96583.53;;;18.33;78.53
34081;BME280;20358;50.272;19.026;2023-08-06T12:30:12;96592.78;;;18.45;78.28
34081;BME280;20358;50.272;19.026;2023-08-06T12:33:18;96592.94;;;18.68;78.00
34081;BME280;20358;50.272;19.026;2023-08-06T12:36:25;96582.97;;;18.78;77.46
34081;BME280;20358;50.272;19.026;2023-08-06T12:39:34;96600.41;;;18.73;76.26
34081;BME280;20358;50.272;19.026;2023-08-06T12:42:43;96592.94;;;18.68;76.11
34081;BME280;20358;50.272;19.026;2023-08-06T12:45:49;96610.31;;;18.63;76.50
34081;BME280;20358;50.272;19.026;2023-08-06T12:49:01;96595.91;;;18.73;77.13
34081;BME280;20358;50.272;19.026;2023-08-06T12:52:09;96596.59;;;18.59;76.28
34081;BME280;20358;50.272;19.026;2023-08-06T12:55:21;96598.91;;;18.70;76.41
34081;BME280;20358;50.272;19.026;2023-08-06T12:58:29;96553.94;;;18.30;76.17
34081;BME280;20358;50.272;19.026;2023-08-06T13:01:38;96597.59;;;18.26;77.19
34081;BME280;20358;50.272;19.026;2023-08-06T13:04:50;96608.50;;;18.31;77.71
34081;BME280;20358;50.272;19.026;2023-08-06T13:07:56;96575.59;;;18.09;77.49
34081;BME280;20358;50.272;19.026;2023-08-06T13:11:10;96603.88;;;18.33;77.96
34081;BME280;20358;50.272;19.026;2023-08-06T13:14:17;96591.81;;;18.54;78.75
34081;BME280;20358;50.272;19.026;2023-08-06T13:17:23;96588.34;;;18.62;77.85
34081;BME280;20358;50.272;19.026;2023-08-06T13:20:30;96594.28;;;18.48;77.58
34081;BME280;20358;50.272;19.026;2023-08-06T13:23:36;96605.84;;;18.63;78.36
34081;BME280;20358;50.272;19.026;2023-08-06T13:26:46;96590.28;;;18.76;77.72
34081;BME280;20358;50.272;19.026;2023-08-06T13:29:51;96599.34;;;18.98;77.91
34081;BME280;20358;50.272;19.026;2023-08-06T13:32:58;96604.78;;;19.04;76.90
34081;BME280;20358;50.272;19.026;2023-08-06T13:36:07;96596.38;;;18.85;75.21
34081;BME280;20358;50.272;19.026;2023-08-06T13:39:14;96622.84;;;19.01;75.16
34081;BME280;20358;50.272;19.026;2023-08-06T13:42:24;96629.28;;;19.06;75.55
34081;BME280;20358;50.272;19.026;2023-08-06T13:45:32;96628.28;;;18.99;74.77
34081;BME280;20358;50.272;19.026;2023-08-06T13:48:41;96623.50;;;19.03;75.23
34081;BME280;20358;50.272;19.026;2023-08-06T13:51:50;96645.50;;;19.11;74.75
34081;BME280;20358;50.272;19.026;2023-08-06T13:55:00;96636.50;;;19.20;74.11
34081;BME280;20358;50.272;19.026;2023-08-06T13:58:10;96637.19;;;19.14;74.19
34081;BME280;20358;50.272;19.026;2023-08-06T14:01:17;96651.78;;;19.02;73.98
34081;BME280;20358;50.272;19.026;2023-08-06T14:04:45;96634.41;;;19.08;74.24
34081;BME280;20358;50.272;19.026;2023-08-06T14:07:52;96653.59;;;19.02;74.17
34081;BME280;20358;50.272;19.026;2023-08-06T14:10:59;96647.16;;;19.04;74.50
34081;BME280;20358;50.272;19.026;2023-08-06T14:14:09;96640.25;;;18.71;75.21
34081;BME280;20358;50.272;19.026;2023-08-06T14:17:17;96647.53;;;18.85;75.40
34081;BME280;20358;50.272;19.026;2023-08-06T14:20:27;96663.09;;;18.88;74.39
34081;BME280;20358;50.272;19.026;2023-08-06T14:23:34;96680.59;;;18.89;74.79
34081;BME280;20358;50.272;19.026;2023-08-06T14:26:40;96673.00;;;18.94;74.31
34081;BME280;20358;50.272;19.026;2023-08-06T14:29:49;96683.56;;;18.94;73.86
34081;BME280;20358;50.272;19.026;2023-08-06T14:32:55;96685.88;;;19.05;74.08
34081;BME280;20358;50.272;19.026;2023-08-06T14:36:25;96683.22;;;19.13;74.37
34081;BME280;20358;50.272;19.026;2023-08-06T14:39:31;96686.72;;;19.06;73.71
34081;BME280;20358;50.272;19.026;2023-08-06T14:42:42;96684.38;;;19.27;73.62
34081;BME280;20358;50.272;19.026;2023-08-06T14:45:52;96692.47;;;19.42;73.31
34081;BME280;20358;50.272;19.026;2023-08-06T14:49:01;96702.84;;;19.51;73.65
34081;BME280;20358;50.272;19.026;2023-08-06T14:52:09;96700.38;;;19.50;72.63
34081;BME280;20358;50.272;19.026;2023-08-06T14:55:24;96703.41;;;19.39;72.62
34081;BME280;20358;50.272;19.026;2023-08-06T14:58:30;96708.69;;;19.14;73.81
34081;BME280;20358;50.272;19.026;2023-08-06T15:01:45;96716.38;;;18.85;75.07
34081;BME280;20358;50.272;19.026;2023-08-06T15:04:51;96696.16;;;18.60;75.45
34081;BME280;20358;50.272;19.026;2023-08-06T15:08:00;96701.47;;;18.60;76.11
34081;BME280;20358;50.272;19.026;2023-08-06T15:11:06;96700.44;;;18.45;76.02
34081;BME280;20358;50.272;19.026;2023-08-06T15:14:15;96648.50;;;18.28;75.22
34081;BME280;20358;50.272;19.026;2023-08-06T15:17:24;96681.63;;;18.48;75.53
34081;BME280;20358;50.272;19.026;2023-08-06T15:20:32;96694.34;;;18.52;75.98
34081;BME280;20358;50.272;19.026;2023-08-06T15:23:38;96693.81;;;18.41;75.72
34081;BME280;20358;50.272;19.026;2023-08-06T15:26:45;96675.28;;;18.25;75.28
34081;BME280;20358;50.272;19.026;2023-08-06T15:29:51;96697.44;;;18.32;75.18
34081;BME280;20358;50.272;19.026;2023-08-06T15:33:02;96694.44;;;18.27;75.35
34081;BME280;20358;50.272;19.026;2023-08-06T15:36:09;96705.38;;;18.40;75.27
34081;BME280;20358;50.272;19.026;2023-08-06T15:39:16;96722.91;;;18.33;74.90
34081;BME280;20358;50.272;19.026;2023-08-06T15:42:21;96722.94;;;18.41;74.69
34081;BME280;20358;50.272;19.026;2023-08-06T15:45:30;96733.00;;;18.37;73.98
34081;BME280;20358;50.272;19.026;2023-08-06T15:48:40;96758.19;;;18.49;73.68
34081;BME280;20358;50.272;19.026;2023-08-06T15:51:52;96739.00;;;18.47;73.14
34081;BME280;20358;50.272;19.026;2023-08-06T15:55:00;96757.72;;;18.54;73.25
34081;BME280;20358;50.272;19.026;2023-08-06T15:58:09;96750.94;;;18.51;72.99
34081;BME280;20358;50.272;19.026;2023-08-06T16:01:15;96776.72;;;18.57;71.95
34081;BME280;20358;50.272;19.026;2023-08-06T16:04:28;96793.66;;;18.23;71.81
34081;BME280;20358;50.272;19.026;2023-08-06T16:07:35;96800.00;;;18.46;72.08
34081;BME280;20358;50.272;19.026;2023-08-06T16:10:44;96797.41;;;18.54;72.63
34081;BME280;20358;50.272;19.026;2023-08-06T16:13:50;96814.59;;;18.58;73.04
34081;BME280;20358;50.272;19.026;2023-08-06T16:16:57;96812.25;;;18.47;73.47
34081;BME280;20358;50.272;19.026;2023-08-06T16:20:06;96819.78;;;18.26;73.83
34081;BME280;20358;50.272;19.026;2023-08-06T16:23:16;96812.38;;;18.37;74.52
34081;BME280;20358;50.272;19.026;2023-08-06T16:26:22;96816.78;;;18.21;74.55
34081;BME280;20358;50.272;19.026;2023-08-06T16:29:30;96817.44;;;18.15;75.00